Impacts TAF Board INFO
FOR SITUATIONAL AWARENESS. NOT TO BE USED FOR FLIGHT PLANNING PURPOSES.
IDs:

KBTR - Baton Rouge/Ryan Fld, LA, US

Issued at 0525 UTC 19 Nov 2017
Updated at 0653 UTC 19 Nov 2017
Potential Impact None Slight Moderate High
Time0553Z 19/07Z 19/08Z 19/09Z 19/10Z 19/11Z 19/12Z 19/13Z 19/14Z 19/15Z 19/16Z 19/17Z 19/18Z 19/19Z>>
Type OBS PRVL PRVL PRVL PRVL PRVL PRVL PRVL PRVL PRVL PRVL PRVL PRVL PRVL
VIS 10 >6 >6 >6 >6 >6 >6 >6 >6 >6 >6 >6 >6 >6
CIG 75 -- -- -- -- -- -- -- -- -- -- -- -- --
Cover BKN SCT SCT SCT SCT SCT SCT SCT SCT SCT SCT SCT SCT SCT
FltCat VFR VFR VFR VFR VFR VFR VFR VFR VFR VFR VFR VFR VFR VFR
WX -- -- -- -- -- -- -- -- -- -- -- -- -- --
WDir 350 350 350 350 350 350 350 350 350 350 350 350 350 350
WSpd 9 11 11 11 11 11 11 11 11 11 11 11 11 11
WGst 18 19 19 19 19 19 19 19 19 19 19 19 19 19

Raw TAF
KBTR 190525Z 1906/2006 35011G19KT P6SM SCT120
  FM192200 35007KT P6SM SKC


Raw METAR
KBTR 190553Z AUTO 35009G18KT 10SM BKN075 14/06 A3009 RMK AO2 SLP188 60004 T01390056 10233 20139 402780139 51039 $
KBTR 190453Z 34012G18KT 10SM SCT070 15/07 A3006 RMK AO2 PK WND 35026/0429 SLP178 T01500067 $
KBTR 190353Z 34012G23KT 10SM BKN070 OVC085 17/08 A3002 RMK AO2 SLP165 T01720083 $

METAR Board
Radar Display
Forecast Discussion

FOR SITUATIONAL AWARENESS. NOT TO BE USED FOR FLIGHT PLANNING PURPOSES.